Terminal Aerodrome Forecast
Issued by NWS Brownsville, TX

Home | Current Version | Previous Version | Text Only | Print | Product List | Glossary On
Versions: 1 2 3 4 5 6 7 8 9 10 11 12 13 14 15 16 17
000
FTUS44 KBRO 192300
TAFMFE
TAF
KMFE 192325Z 2000/2024 12011KT P6SM OVC045
     FM200500 13009KT P6SM BKN025 OVC200
     FM200900 13008KT P6SM BKN012 OVC200
     FM201600 14014KT P6SM BKN025 OVC200
     FM201900 15016G24KT P6SM BKN035=

USA.gov is the U.S. government's official web portal to all federal, state and local government web resources and services.